ADDS METAR Data INFO
IDs: Format: Raw Decoded Include TAF

Data at: 1117 UTC 21 Feb 2018

PACV 201453Z 00000KT 10SM SCT180 M08/M08 A3034 RMK AO2 SLP276 I3000 T10781078 56015
PACV 201353Z 00000KT 10SM SCT180 M08/M08 A3035 RMK AO2 SLP279 T10781083
PACV 201253Z 00000KT 10SM SCT180 M07/M08 A3037 RMK AO2 SLP284 I1000 T10671078
PACV 201153Z 00000KT 10SM CLR M06/M07 A3039 RMK AO2 SLP291 4/003 I1000 I6000 T10611072 11033 21072 53009
PACV 201053Z 00000KT 10SM CLR M07/M08 A3037 RMK AO2 SLP286 I1000 T10671078
PACV 200953Z 00000KT 10SM CLR M07/M07 A3037 RMK AO2 SLP284 I1000 T10671072
PACV 200853Z 00000KT 10SM CLR M06/M06 A3036 RMK AO2 SLP282 I1000 I3000 T10561061 400441089 53007
PACV 200753Z 00000KT 10SM CLR M06/M06 A3035 RMK AO2 SLP278 I1000 T10561056
PACV 200653Z 00000KT 10SM CLR M06/M06 A3035 RMK AO2 SLP278 T10561056
PACV 200553Z 08005KT 10SM CLR M04/M05 A3034 RMK AO2 SLP275 T10391050 10033 21050 53007
PACV 200453Z 00000KT 10SM BKN250 M03/M04 A3033 RMK AO2 SLP270 T10331044
PACV 200353Z 00000KT 10SM BKN250 M02/M04 A3032 RMK AO2 SLP267 T10221039
PACV 200253Z 00000KT 10SM BKN250 M01/M03 A3032 RMK AO2 SLP268 T10061028 53002
PACV 200153Z 29005KT 10SM BKN250 00/M03 A3032 RMK AO2 SLP267 T00001033
PACV 200053Z 31004KT 10SM CLR 02/M03 A3031 RMK AO2 SLP264 T00221033
PACV 192353Z COR 13003KT 10SM CLR 03/M04 A3032 RMK AO2 SLP266 T00281039 10044 21083 50001